sensor_id;sensor_type;location;lat;lon;timestamp;P1;durP1;ratioP1;P2;durP2;ratioP2
18661;SDS011;61528;49.456;11.098;2023-07-29T00:01:07;3.07;;;2.87;;
18661;SDS011;61528;49.456;11.098;2023-07-29T00:03:34;3.20;;;2.90;;
18661;SDS011;61528;49.456;11.098;2023-07-29T00:06:00;2.73;;;2.50;;
18661;SDS011;61528;49.456;11.098;2023-07-29T00:08:26;3.53;;;3.03;;
18661;SDS011;61528;49.456;11.098;2023-07-29T00:10:53;3.13;;;2.93;;
18661;SDS011;61528;49.456;11.098;2023-07-29T00:13:19;3.03;;;2.77;;
18661;SDS011;61528;49.456;11.098;2023-07-29T00:15:45;3.37;;;2.90;;
18661;SDS011;61528;49.456;11.098;2023-07-29T00:18:12;3.30;;;2.80;;
18661;SDS011;61528;49.456;11.098;2023-07-29T00:20:38;3.77;;;2.93;;
18661;SDS011;61528;49.456;11.098;2023-07-29T00:23:04;3.20;;;3.00;;
18661;SDS011;61528;49.456;11.098;2023-07-29T00:25:31;4.30;;;3.47;;
18661;SDS011;61528;49.456;11.098;2023-07-29T00:27:58;3.23;;;2.93;;
18661;SDS011;61528;49.456;11.098;2023-07-29T00:30:25;3.20;;;2.90;;
18661;SDS011;61528;49.456;11.098;2023-07-29T00:32:51;5.50;;;3.23;;
18661;SDS011;61528;49.456;11.098;2023-07-29T00:35:17;4.57;;;3.17;;
18661;SDS011;61528;49.456;11.098;2023-07-29T00:37:44;3.77;;;3.17;;
18661;SDS011;61528;49.456;11.098;2023-07-29T00:40:20;4.13;;;3.57;;
18661;SDS011;61528;49.456;11.098;2023-07-29T00:42:46;3.73;;;3.30;;
18661;SDS011;61528;49.456;11.098;2023-07-29T00:45:13;4.00;;;3.50;;
18661;SDS011;61528;49.456;11.098;2023-07-29T00:47:39;3.43;;;3.13;;
18661;SDS011;61528;49.456;11.098;2023-07-29T00:50:06;4.13;;;3.17;;
18661;SDS011;61528;49.456;11.098;2023-07-29T00:52:33;4.57;;;3.80;;
18661;SDS011;61528;49.456;11.098;2023-07-29T00:54:59;3.87;;;3.57;;
18661;SDS011;61528;49.456;11.098;2023-07-29T00:57:25;3.50;;;3.20;;
18661;SDS011;61528;49.456;11.098;2023-07-29T00:59:53;4.37;;;3.50;;
18661;SDS011;61528;49.456;11.098;2023-07-29T01:02:20;4.00;;;3.70;;
18661;SDS011;61528;49.456;11.098;2023-07-29T01:04:51;5.37;;;3.83;;
18661;SDS011;61528;49.456;11.098;2023-07-29T01:07:21;5.97;;;3.67;;
18661;SDS011;61528;49.456;11.098;2023-07-29T01:10:07;4.70;;;3.70;;
18661;SDS011;61528;49.456;11.098;2023-07-29T01:12:37;3.77;;;3.47;;
18661;SDS011;61528;49.456;11.098;2023-07-29T01:15:16;4.07;;;3.67;;
18661;SDS011;61528;49.456;11.098;2023-07-29T01:17:43;3.73;;;3.33;;
18661;SDS011;61528;49.456;11.098;2023-07-29T01:20:17;4.33;;;3.93;;
18661;SDS011;61528;49.456;11.098;2023-07-29T01:22:45;3.67;;;3.33;;
18661;SDS011;61528;49.456;11.098;2023-07-29T01:25:16;4.90;;;3.70;;
18661;SDS011;61528;49.456;11.098;2023-07-29T01:27:44;4.00;;;3.57;;
18661;SDS011;61528;49.456;11.098;2023-07-29T01:30:11;4.00;;;3.63;;
18661;SDS011;61528;49.456;11.098;2023-07-29T01:32:43;4.13;;;3.73;;
18661;SDS011;61528;49.456;11.098;2023-07-29T01:35:15;4.10;;;3.67;;
18661;SDS011;61528;49.456;11.098;2023-07-29T01:37:43;4.10;;;3.50;;
18661;SDS011;61528;49.456;11.098;2023-07-29T01:40:11;4.93;;;3.63;;
18661;SDS011;61528;49.456;11.098;2023-07-29T01:42:37;4.30;;;3.80;;
18661;SDS011;61528;49.456;11.098;2023-07-29T01:45:04;3.87;;;3.57;;
18661;SDS011;61528;49.456;11.098;2023-07-29T01:47:30;3.80;;;3.50;;
18661;SDS011;61528;49.456;11.098;2023-07-29T01:49:56;4.37;;;3.90;;
18661;SDS011;61528;49.456;11.098;2023-07-29T01:52:23;3.63;;;3.33;;
18661;SDS011;61528;49.456;11.098;2023-07-29T01:54:49;4.20;;;3.90;;
18661;SDS011;61528;49.456;11.098;2023-07-29T01:57:15;3.80;;;3.47;;
18661;SDS011;61528;49.456;11.098;2023-07-29T01:59:41;4.17;;;3.77;;
18661;SDS011;61528;49.456;11.098;2023-07-29T02:02:08;3.77;;;3.33;;
18661;SDS011;61528;49.456;11.098;2023-07-29T02:04:34;4.77;;;3.87;;
18661;SDS011;61528;49.456;11.098;2023-07-29T02:07:00;3.87;;;3.47;;
18661;SDS011;61528;49.456;11.098;2023-07-29T02:09:27;3.97;;;3.67;;
18661;SDS011;61528;49.456;11.098;2023-07-29T02:11:53;3.70;;;3.40;;
18661;SDS011;61528;49.456;11.098;2023-07-29T02:14:20;3.67;;;3.37;;
18661;SDS011;61528;49.456;11.098;2023-07-29T02:16:46;4.03;;;3.60;;
18661;SDS011;61528;49.456;11.098;2023-07-29T02:19:13;3.90;;;3.57;;
18661;SDS011;61528;49.456;11.098;2023-07-29T02:21:39;4.23;;;3.80;;
18661;SDS011;61528;49.456;11.098;2023-07-29T02:24:05;4.73;;;4.23;;
18661;SDS011;61528;49.456;11.098;2023-07-29T02:26:32;4.63;;;3.47;;
18661;SDS011;61528;49.456;11.098;2023-07-29T02:28:58;4.23;;;3.83;;
18661;SDS011;61528;49.456;11.098;2023-07-29T02:31:24;5.13;;;3.67;;
18661;SDS011;61528;49.456;11.098;2023-07-29T02:33:51;4.53;;;3.47;;
18661;SDS011;61528;49.456;11.098;2023-07-29T02:36:18;3.70;;;3.40;;
18661;SDS011;61528;49.456;11.098;2023-07-29T02:38:44;4.33;;;3.97;;
18661;SDS011;61528;49.456;11.098;2023-07-29T02:41:11;4.67;;;4.00;;
18661;SDS011;61528;49.456;11.098;2023-07-29T02:43:38;4.00;;;3.63;;
18661;SDS011;61528;49.456;11.098;2023-07-29T02:46:06;3.90;;;3.50;;
18661;SDS011;61528;49.456;11.098;2023-07-29T02:48:32;4.17;;;3.87;;
18661;SDS011;61528;49.456;11.098;2023-07-29T02:50:58;4.13;;;3.60;;
18661;SDS011;61528;49.456;11.098;2023-07-29T02:53:25;3.80;;;3.50;;
18661;SDS011;61528;49.456;11.098;2023-07-29T02:55:51;4.00;;;3.57;;
18661;SDS011;61528;49.456;11.098;2023-07-29T02:58:17;4.13;;;3.47;;
18661;SDS011;61528;49.456;11.098;2023-07-29T03:00:44;4.27;;;3.80;;
18661;SDS011;61528;49.456;11.098;2023-07-29T03:03:10;3.77;;;3.47;;
18661;SDS011;61528;49.456;11.098;2023-07-29T03:05:39;4.07;;;3.50;;
18661;SDS011;61528;49.456;11.098;2023-07-29T03:08:05;3.60;;;3.30;;
18661;SDS011;61528;49.456;11.098;2023-07-29T03:10:34;3.77;;;3.47;;
18661;SDS011;61528;49.456;11.098;2023-07-29T03:13:02;3.90;;;3.60;;
18661;SDS011;61528;49.456;11.098;2023-07-29T03:15:29;3.53;;;3.23;;
18661;SDS011;61528;49.456;11.098;2023-07-29T03:17:55;5.87;;;3.80;;
18661;SDS011;61528;49.456;11.098;2023-07-29T03:20:21;3.93;;;3.50;;
18661;SDS011;61528;49.456;11.098;2023-07-29T03:22:48;4.17;;;3.77;;
18661;SDS011;61528;49.456;11.098;2023-07-29T03:25:14;3.93;;;3.53;;
18661;SDS011;61528;49.456;11.098;2023-07-29T03:27:41;4.20;;;3.63;;
18661;SDS011;61528;49.456;11.098;2023-07-29T03:30:07;3.70;;;3.40;;
18661;SDS011;61528;49.456;11.098;2023-07-29T03:32:35;3.80;;;3.40;;
18661;SDS011;61528;49.456;11.098;2023-07-29T03:35:01;4.20;;;3.90;;
18661;SDS011;61528;49.456;11.098;2023-07-29T03:37:28;4.77;;;4.37;;
18661;SDS011;61528;49.456;11.098;2023-07-29T03:39:54;4.13;;;3.73;;
18661;SDS011;61528;49.456;11.098;2023-07-29T03:42:21;7.30;;;4.33;;
18661;SDS011;61528;49.456;11.098;2023-07-29T03:44:47;5.43;;;4.63;;
18661;SDS011;61528;49.456;11.098;2023-07-29T03:47:13;5.60;;;4.17;;
18661;SDS011;61528;49.456;11.098;2023-07-29T03:49:39;6.80;;;4.40;;
18661;SDS011;61528;49.456;11.098;2023-07-29T03:52:06;8.20;;;4.80;;
18661;SDS011;61528;49.456;11.098;2023-07-29T03:54:32;5.03;;;4.53;;
18661;SDS011;61528;49.456;11.098;2023-07-29T03:56:58;5.87;;;4.77;;
18661;SDS011;61528;49.456;11.098;2023-07-29T03:59:25;7.67;;;4.73;;
18661;SDS011;61528;49.456;11.098;2023-07-29T04:01:51;9.30;;;4.70;;
18661;SDS011;61528;49.456;11.098;2023-07-29T04:04:18;4.80;;;4.30;;
18661;SDS011;61528;49.456;11.098;2023-07-29T04:06:44;6.67;;;4.83;;
18661;SDS011;61528;49.456;11.098;2023-07-29T04:09:10;4.70;;;4.20;;
18661;SDS011;61528;49.456;11.098;2023-07-29T04:11:37;4.80;;;4.10;;
18661;SDS011;61528;49.456;11.098;2023-07-29T04:14:03;4.30;;;3.80;;
18661;SDS011;61528;49.456;11.098;2023-07-29T04:16:29;5.63;;;4.30;;
18661;SDS011;61528;49.456;11.098;2023-07-29T04:18:56;4.27;;;3.87;;
18661;SDS011;61528;49.456;11.098;2023-07-29T04:21:22;4.63;;;4.23;;
18661;SDS011;61528;49.456;11.098;2023-07-29T04:23:48;4.90;;;4.37;;
18661;SDS011;61528;49.456;11.098;2023-07-29T04:26:14;4.73;;;4.27;;
18661;SDS011;61528;49.456;11.098;2023-07-29T04:28:41;4.60;;;3.97;;
18661;SDS011;61528;49.456;11.098;2023-07-29T04:31:08;4.00;;;3.70;;
18661;SDS011;61528;49.456;11.098;2023-07-29T04:33:34;4.43;;;3.73;;
18661;SDS011;61528;49.456;11.098;2023-07-29T04:36:01;5.20;;;4.00;;
18661;SDS011;61528;49.456;11.098;2023-07-29T04:38:30;3.93;;;3.63;;
18661;SDS011;61528;49.456;11.098;2023-07-29T04:40:57;4.17;;;3.77;;
18661;SDS011;61528;49.456;11.098;2023-07-29T04:43:27;4.30;;;3.90;;
18661;SDS011;61528;49.456;11.098;2023-07-29T04:45:53;3.97;;;3.67;;
18661;SDS011;61528;49.456;11.098;2023-07-29T04:48:20;4.90;;;3.50;;
18661;SDS011;61528;49.456;11.098;2023-07-29T04:50:46;4.27;;;3.90;;
18661;SDS011;61528;49.456;11.098;2023-07-29T04:53:13;4.40;;;3.13;;
18661;SDS011;61528;49.456;11.098;2023-07-29T04:55:43;4.40;;;3.83;;
18661;SDS011;61528;49.456;11.098;2023-07-29T04:58:09;3.93;;;3.47;;
18661;SDS011;61528;49.456;11.098;2023-07-29T05:00:37;3.40;;;3.10;;
18661;SDS011;61528;49.456;11.098;2023-07-29T05:03:03;5.00;;;3.20;;
18661;SDS011;61528;49.456;11.098;2023-07-29T05:05:29;3.30;;;3.10;;
18661;SDS011;61528;49.456;11.098;2023-07-29T05:07:55;3.37;;;3.17;;
18661;SDS011;61528;49.456;11.098;2023-07-29T05:10:22;3.33;;;3.03;;
18661;SDS011;61528;49.456;11.098;2023-07-29T05:12:49;3.40;;;3.10;;
18661;SDS011;61528;49.456;11.098;2023-07-29T05:15:15;5.03;;;2.80;;
18661;SDS011;61528;49.456;11.098;2023-07-29T05:17:43;5.33;;;3.00;;
18661;SDS011;61528;49.456;11.098;2023-07-29T05:20:10;4.30;;;2.97;;
18661;SDS011;61528;49.456;11.098;2023-07-29T05:22:37;4.17;;;3.40;;
18661;SDS011;61528;49.456;11.098;2023-07-29T05:25:03;3.20;;;3.00;;
18661;SDS011;61528;49.456;11.098;2023-07-29T05:27:30;2.83;;;2.63;;
18661;SDS011;61528;49.456;11.098;2023-07-29T05:29:56;2.93;;;2.63;;
18661;SDS011;61528;49.456;11.098;2023-07-29T05:32:22;2.77;;;2.57;;
18661;SDS011;61528;49.456;11.098;2023-07-29T05:34:49;2.80;;;2.53;;
18661;SDS011;61528;49.456;11.098;2023-07-29T05:37:15;2.97;;;2.67;;
18661;SDS011;61528;49.456;11.098;2023-07-29T05:39:41;3.47;;;2.60;;
18661;SDS011;61528;49.456;11.098;2023-07-29T05:42:08;3.83;;;2.50;;
18661;SDS011;61528;49.456;11.098;2023-07-29T05:44:34;2.90;;;2.60;;
18661;SDS011;61528;49.456;11.098;2023-07-29T05:47:00;3.23;;;2.53;;
18661;SDS011;61528;49.456;11.098;2023-07-29T05:49:27;2.80;;;2.57;;
18661;SDS011;61528;49.456;11.098;2023-07-29T05:51:53;2.57;;;2.37;;
18661;SDS011;61528;49.456;11.098;2023-07-29T05:54:19;2.67;;;2.47;;
18661;SDS011;61528;49.456;11.098;2023-07-29T05:56:45;3.87;;;2.47;;
18661;SDS011;61528;49.456;11.098;2023-07-29T05:59:11;2.70;;;2.50;;
18661;SDS011;61528;49.456;11.098;2023-07-29T06:01:38;3.57;;;3.00;;
18661;SDS011;61528;49.456;11.098;2023-07-29T06:04:04;2.50;;;2.23;;
18661;SDS011;61528;49.456;11.098;2023-07-29T06:06:30;2.63;;;2.43;;
18661;SDS011;61528;49.456;11.098;2023-07-29T06:08:57;3.03;;;2.73;;
18661;SDS011;61528;49.456;11.098;2023-07-29T06:11:23;3.27;;;2.20;;
18661;SDS011;61528;49.456;11.098;2023-07-29T06:13:49;2.80;;;2.57;;
18661;SDS011;61528;49.456;11.098;2023-07-29T06:16:15;3.17;;;2.37;;
18661;SDS011;61528;49.456;11.098;2023-07-29T06:18:42;3.07;;;2.63;;
18661;SDS011;61528;49.456;11.098;2023-07-29T06:21:08;3.50;;;2.40;;
18661;SDS011;61528;49.456;11.098;2023-07-29T06:23:37;3.40;;;2.60;;
18661;SDS011;61528;49.456;11.098;2023-07-29T06:26:03;3.37;;;2.70;;
18661;SDS011;61528;49.456;11.098;2023-07-29T06:28:31;2.77;;;2.57;;
18661;SDS011;61528;49.456;11.098;2023-07-29T06:30:58;4.27;;;2.73;;
18661;SDS011;61528;49.456;11.098;2023-07-29T06:33:24;4.33;;;2.60;;
18661;SDS011;61528;49.456;11.098;2023-07-29T06:35:50;3.37;;;3.03;;
18661;SDS011;61528;49.456;11.098;2023-07-29T06:38:16;4.70;;;2.90;;
18661;SDS011;61528;49.456;11.098;2023-07-29T06:40:47;2.87;;;2.67;;
18661;SDS011;61528;49.456;11.098;2023-07-29T06:43:13;4.93;;;3.20;;
18661;SDS011;61528;49.456;11.098;2023-07-29T06:45:39;3.87;;;2.90;;
18661;SDS011;61528;49.456;11.098;2023-07-29T06:48:05;4.33;;;3.43;;
18661;SDS011;61528;49.456;11.098;2023-07-29T06:50:32;6.60;;;4.20;;
18661;SDS011;61528;49.456;11.098;2023-07-29T06:52:58;4.70;;;3.90;;
18661;SDS011;61528;49.456;11.098;2023-07-29T06:55:24;5.87;;;3.90;;
18661;SDS011;61528;49.456;11.098;2023-07-29T06:57:50;4.93;;;3.27;;
18661;SDS011;61528;49.456;11.098;2023-07-29T07:00:17;4.17;;;3.40;;
18661;SDS011;61528;49.456;11.098;2023-07-29T07:02:43;3.93;;;3.53;;
18661;SDS011;61528;49.456;11.098;2023-07-29T07:05:09;2.93;;;2.63;;
18661;SDS011;61528;49.456;11.098;2023-07-29T07:07:36;3.13;;;2.83;;
18661;SDS011;61528;49.456;11.098;2023-07-29T07:10:03;4.07;;;2.83;;
18661;SDS011;61528;49.456;11.098;2023-07-29T07:12:29;6.27;;;4.03;;
18661;SDS011;61528;49.456;11.098;2023-07-29T07:14:55;5.57;;;3.67;;
18661;SDS011;61528;49.456;11.098;2023-07-29T07:17:22;5.93;;;3.73;;
18661;SDS011;61528;49.456;11.098;2023-07-29T07:19:48;4.60;;;3.80;;
18661;SDS011;61528;49.456;11.098;2023-07-29T07:22:15;5.53;;;3.90;;
18661;SDS011;61528;49.456;11.098;2023-07-29T07:24:44;5.40;;;4.07;;
18661;SDS011;61528;49.456;11.098;2023-07-29T07:27:10;6.53;;;4.23;;
18661;SDS011;61528;49.456;11.098;2023-07-29T07:29:36;6.20;;;4.50;;
18661;SDS011;61528;49.456;11.098;2023-07-29T07:32:03;5.33;;;4.47;;
18661;SDS011;61528;49.456;11.098;2023-07-29T07:34:29;4.73;;;4.13;;
18661;SDS011;61528;49.456;11.098;2023-07-29T07:36:56;6.90;;;4.30;;
18661;SDS011;61528;49.456;11.098;2023-07-29T07:39:22;6.50;;;4.70;;
18661;SDS011;61528;49.456;11.098;2023-07-29T07:41:48;5.47;;;3.60;;
18661;SDS011;61528;49.456;11.098;2023-07-29T07:44:14;7.77;;;4.47;;
18661;SDS011;61528;49.456;11.098;2023-07-29T07:46:43;5.43;;;4.20;;
18661;SDS011;61528;49.456;11.098;2023-07-29T07:49:09;5.00;;;3.97;;
18661;SDS011;61528;49.456;11.098;2023-07-29T07:51:36;5.20;;;4.07;;
18661;SDS011;61528;49.456;11.098;2023-07-29T07:54:02;6.17;;;4.23;;
18661;SDS011;61528;49.456;11.098;2023-07-29T07:56:28;5.37;;;4.87;;
18661;SDS011;61528;49.456;11.098;2023-07-29T07:58:55;4.87;;;4.47;;
18661;SDS011;61528;49.456;11.098;2023-07-29T08:01:21;4.50;;;4.10;;
18661;SDS011;61528;49.456;11.098;2023-07-29T08:03:47;5.27;;;4.53;;
18661;SDS011;61528;49.456;11.098;2023-07-29T08:06:13;4.73;;;4.33;;
18661;SDS011;61528;49.456;11.098;2023-07-29T08:08:40;7.87;;;4.70;;
18661;SDS011;61528;49.456;11.098;2023-07-29T08:11:06;5.27;;;4.73;;
18661;SDS011;61528;49.456;11.098;2023-07-29T08:13:32;6.13;;;4.90;;
18661;SDS011;61528;49.456;11.098;2023-07-29T08:15:58;5.93;;;5.20;;
18661;SDS011;61528;49.456;11.098;2023-07-29T08:18:25;5.70;;;5.20;;
18661;SDS011;61528;49.456;11.098;2023-07-29T08:20:54;7.67;;;5.37;;
18661;SDS011;61528;49.456;11.098;2023-07-29T08:23:23;8.80;;;5.27;;
18661;SDS011;61528;49.456;11.098;2023-07-29T08:25:53;8.27;;;6.27;;
18661;SDS011;61528;49.456;11.098;2023-07-29T08:28:24;7.67;;;6.23;;
18661;SDS011;61528;49.456;11.098;2023-07-29T08:30:50;9.53;;;6.50;;
18661;SDS011;61528;49.456;11.098;2023-07-29T08:33:17;8.10;;;6.33;;
18661;SDS011;61528;49.456;11.098;2023-07-29T08:35:43;6.93;;;6.07;;
18661;SDS011;61528;49.456;11.098;2023-07-29T08:38:11;8.93;;;6.43;;
18661;SDS011;61528;49.456;11.098;2023-07-29T08:40:40;7.50;;;6.47;;
18661;SDS011;61528;49.456;11.098;2023-07-29T08:43:08;7.93;;;6.30;;
18661;SDS011;61528;49.456;11.098;2023-07-29T08:45:35;7.93;;;6.37;;
18661;SDS011;61528;49.456;11.098;2023-07-29T08:48:02;6.40;;;5.57;;
18661;SDS011;61528;49.456;11.098;2023-07-29T08:50:30;5.30;;;4.20;;
18661;SDS011;61528;49.456;11.098;2023-07-29T08:52:58;5.57;;;4.17;;
18661;SDS011;61528;49.456;11.098;2023-07-29T08:55:25;4.50;;;3.70;;
18661;SDS011;61528;49.456;11.098;2023-07-29T08:57:51;5.57;;;4.07;;
18661;SDS011;61528;49.456;11.098;2023-07-29T09:00:18;4.77;;;3.70;;
18661;SDS011;61528;49.456;11.098;2023-07-29T09:02:45;3.17;;;2.87;;
18661;SDS011;61528;49.456;11.098;2023-07-29T09:05:11;4.43;;;2.90;;
18661;SDS011;61528;49.456;11.098;2023-07-29T09:07:37;3.43;;;3.13;;
18661;SDS011;61528;49.456;11.098;2023-07-29T09:10:04;3.90;;;3.50;;
18661;SDS011;61528;49.456;11.098;2023-07-29T09:12:30;4.20;;;3.80;;
18661;SDS011;61528;49.456;11.098;2023-07-29T09:14:57;5.23;;;4.23;;
18661;SDS011;61528;49.456;11.098;2023-07-29T09:17:23;5.60;;;4.77;;
18661;SDS011;61528;49.456;11.098;2023-07-29T09:19:50;5.37;;;4.80;;
18661;SDS011;61528;49.456;11.098;2023-07-29T09:22:20;5.03;;;4.57;;
18661;SDS011;61528;49.456;11.098;2023-07-29T09:24:46;5.70;;;5.10;;
18661;SDS011;61528;49.456;11.098;2023-07-29T09:27:25;5.90;;;4.70;;
18661;SDS011;61528;49.456;11.098;2023-07-29T09:29:53;5.63;;;5.03;;
18661;SDS011;61528;49.456;11.098;2023-07-29T09:32:20;5.40;;;4.80;;
18661;SDS011;61528;49.456;11.098;2023-07-29T09:34:46;6.37;;;4.80;;
18661;SDS011;61528;49.456;11.098;2023-07-29T09:37:22;5.03;;;4.50;;
18661;SDS011;61528;49.456;11.098;2023-07-29T09:39:49;5.23;;;4.83;;
18661;SDS011;61528;49.456;11.098;2023-07-29T09:42:19;5.90;;;4.87;;
18661;SDS011;61528;49.456;11.098;2023-07-29T09:44:46;5.40;;;4.90;;
18661;SDS011;61528;49.456;11.098;2023-07-29T09:47:19;5.90;;;5.30;;
18661;SDS011;61528;49.456;11.098;2023-07-29T09:49:46;6.33;;;5.73;;
18661;SDS011;61528;49.456;11.098;2023-07-29T09:52:14;6.93;;;6.00;;
18661;SDS011;61528;49.456;11.098;2023-07-29T09:54:41;7.80;;;6.07;;
18661;SDS011;61528;49.456;11.098;2023-07-29T09:57:08;6.63;;;5.87;;
18661;SDS011;61528;49.456;11.098;2023-07-29T09:59:34;8.27;;;6.13;;
18661;SDS011;61528;49.456;11.098;2023-07-29T10:02:00;7.67;;;6.57;;
18661;SDS011;61528;49.456;11.098;2023-07-29T10:04:27;7.90;;;7.10;;
18661;SDS011;61528;49.456;11.098;2023-07-29T10:06:54;7.70;;;6.90;;
18661;SDS011;61528;49.456;11.098;2023-07-29T10:09:21;8.10;;;7.30;;
18661;SDS011;61528;49.456;11.098;2023-07-29T10:11:47;7.23;;;6.53;;
18661;SDS011;61528;49.456;11.098;2023-07-29T10:14:14;6.97;;;6.37;;
18661;SDS011;61528;49.456;11.098;2023-07-29T10:16:41;6.93;;;6.33;;
18661;SDS011;61528;49.456;11.098;2023-07-29T10:19:10;6.97;;;6.10;;
18661;SDS011;61528;49.456;11.098;2023-07-29T10:21:38;7.40;;;6.13;;
18661;SDS011;61528;49.456;11.098;2023-07-29T10:24:06;7.50;;;6.73;;
18661;SDS011;61528;49.456;11.098;2023-07-29T10:26:35;6.90;;;6.20;;
18661;SDS011;61528;49.456;11.098;2023-07-29T10:29:05;6.60;;;6.00;;
18661;SDS011;61528;49.456;11.098;2023-07-29T10:31:33;6.87;;;6.27;;
18661;SDS011;61528;49.456;11.098;2023-07-29T10:34:00;6.27;;;5.77;;
18661;SDS011;61528;49.456;11.098;2023-07-29T10:36:26;6.63;;;5.27;;
18661;SDS011;61528;49.456;11.098;2023-07-29T10:38:53;6.57;;;4.93;;
18661;SDS011;61528;49.456;11.098;2023-07-29T10:41:20;6.00;;;5.40;;
18661;SDS011;61528;49.456;11.098;2023-07-29T10:43:46;5.67;;;4.90;;
18661;SDS011;61528;49.456;11.098;2023-07-29T10:48:52;5.27;;;4.73;;
18661;SDS011;61528;49.456;11.098;2023-07-29T10:51:29;6.00;;;5.10;;
18661;SDS011;61528;49.456;11.098;2023-07-29T10:53:59;4.17;;;3.77;;
18661;SDS011;61528;49.456;11.098;2023-07-29T10:56:26;4.73;;;3.60;;
18661;SDS011;61528;49.456;11.098;2023-07-29T10:58:54;4.33;;;3.47;;
18661;SDS011;61528;49.456;11.098;2023-07-29T11:01:29;3.63;;;3.33;;
18661;SDS011;61528;49.456;11.098;2023-07-29T11:04:45;3.13;;;2.37;;
18661;SDS011;61528;49.456;11.098;2023-07-29T11:07:01;3.23;;;2.80;;
18661;SDS011;61528;49.456;11.098;2023-07-29T11:15:04;2.47;;;2.27;;
18661;SDS011;61528;49.456;11.098;2023-07-29T11:17:32;2.93;;;2.00;;
18661;SDS011;61528;49.456;11.098;2023-07-29T11:20:02;1.90;;;1.80;;
18661;SDS011;61528;49.456;11.098;2023-07-29T11:22:30;6.70;;;2.10;;
18661;SDS011;61528;49.456;11.098;2023-07-29T11:24:56;2.77;;;1.90;;
18661;SDS011;61528;49.456;11.098;2023-07-29T11:27:23;2.37;;;1.80;;
18661;SDS011;61528;49.456;11.098;2023-07-29T11:29:49;3.67;;;2.30;;
18661;SDS011;61528;49.456;11.098;2023-07-29T11:32:16;3.33;;;1.97;;
18661;SDS011;61528;49.456;11.098;2023-07-29T11:34:42;2.40;;;2.20;;
18661;SDS011;61528;49.456;11.098;2023-07-29T11:37:09;3.00;;;2.43;;
18661;SDS011;61528;49.456;11.098;2023-07-29T11:39:43;3.27;;;2.43;;
18661;SDS011;61528;49.456;11.098;2023-07-29T11:42:16;2.43;;;2.23;;
18661;SDS011;61528;49.456;11.098;2023-07-29T11:44:42;2.70;;;2.50;;
18661;SDS011;61528;49.456;11.098;2023-07-29T11:47:09;2.80;;;2.60;;
18661;SDS011;61528;49.456;11.098;2023-07-29T11:49:40;2.80;;;2.60;;
18661;SDS011;61528;49.456;11.098;2023-07-29T11:52:07;3.07;;;2.77;;
18661;SDS011;61528;49.456;11.098;2023-07-29T11:54:37;2.90;;;2.60;;
18661;SDS011;61528;49.456;11.098;2023-07-29T11:57:07;3.63;;;2.93;;
18661;SDS011;61528;49.456;11.098;2023-07-29T11:59:36;3.47;;;2.80;;
18661;SDS011;61528;49.456;11.098;2023-07-29T12:02:24;3.80;;;2.77;;
18661;SDS011;61528;49.456;11.098;2023-07-29T12:04:51;2.90;;;2.20;;
18661;SDS011;61528;49.456;11.098;2023-07-29T12:07:20;2.27;;;2.03;;
18661;SDS011;61528;49.456;11.098;2023-07-29T12:09:47;2.10;;;2.00;;
18661;SDS011;61528;49.456;11.098;2023-07-29T12:12:13;2.53;;;2.33;;
18661;SDS011;61528;49.456;11.098;2023-07-29T12:14:43;3.23;;;2.13;;
18661;SDS011;61528;49.456;11.098;2023-07-29T12:17:10;1.83;;;1.73;;
18661;SDS011;61528;49.456;11.098;2023-07-29T12:19:37;2.67;;;2.20;;
18661;SDS011;61528;49.456;11.098;2023-07-29T12:22:04;2.00;;;1.90;;
18661;SDS011;61528;49.456;11.098;2023-07-29T12:24:32;2.17;;;1.90;;
18661;SDS011;61528;49.456;11.098;2023-07-29T12:26:58;2.27;;;2.07;;
18661;SDS011;61528;49.456;11.098;2023-07-29T12:29:25;2.70;;;2.00;;
18661;SDS011;61528;49.456;11.098;2023-07-29T12:31:58;2.23;;;2.03;;
18661;SDS011;61528;49.456;11.098;2023-07-29T12:34:25;2.23;;;2.03;;
18661;SDS011;61528;49.456;11.098;2023-07-29T12:36:53;2.10;;;2.00;;
18661;SDS011;61528;49.456;11.098;2023-07-29T12:41:50;2.73;;;2.03;;
18661;SDS011;61528;49.456;11.098;2023-07-29T12:44:17;2.30;;;2.10;;
18661;SDS011;61528;49.456;11.098;2023-07-29T12:46:44;2.23;;;2.13;;
18661;SDS011;61528;49.456;11.098;2023-07-29T12:49:10;2.57;;;2.17;;
18661;SDS011;61528;49.456;11.098;2023-07-29T12:51:36;1.90;;;1.70;;
18661;SDS011;61528;49.456;11.098;2023-07-29T12:54:03;5.23;;;1.80;;
18661;SDS011;61528;49.456;11.098;2023-07-29T12:56:30;2.00;;;1.70;;
18661;SDS011;61528;49.456;11.098;2023-07-29T12:58:56;1.67;;;1.57;;
18661;SDS011;61528;49.456;11.098;2023-07-29T13:01:23;1.87;;;1.60;;
18661;SDS011;61528;49.456;11.098;2023-07-29T13:03:50;1.40;;;1.30;;
18661;SDS011;61528;49.456;11.098;2023-07-29T13:06:16;1.80;;;1.70;;
18661;SDS011;61528;49.456;11.098;2023-07-29T13:08:43;2.40;;;1.80;;
18661;SDS011;61528;49.456;11.098;2023-07-29T13:11:10;2.87;;;1.97;;
18661;SDS011;61528;49.456;11.098;2023-07-29T13:13:37;2.50;;;2.00;;
18661;SDS011;61528;49.456;11.098;2023-07-29T13:16:03;1.83;;;1.60;;
18661;SDS011;61528;49.456;11.098;2023-07-29T13:18:29;2.30;;;1.53;;
18661;SDS011;61528;49.456;11.098;2023-07-29T13:20:56;1.77;;;1.67;;
18661;SDS011;61528;49.456;11.098;2023-07-29T13:23:22;2.17;;;1.50;;
18661;SDS011;61528;49.456;11.098;2023-07-29T13:25:49;2.07;;;1.87;;
18661;SDS011;61528;49.456;11.098;2023-07-29T13:28:15;1.50;;;1.40;;
18661;SDS011;61528;49.456;11.098;2023-07-29T13:30:41;1.60;;;1.47;;
18661;SDS011;61528;49.456;11.098;2023-07-29T13:33:08;2.50;;;1.90;;
18661;SDS011;61528;49.456;11.098;2023-07-29T13:35:34;1.83;;;1.50;;
18661;SDS011;61528;49.456;11.098;2023-07-29T13:38:01;2.50;;;1.57;;
18661;SDS011;61528;49.456;11.098;2023-07-29T13:40:27;1.77;;;1.67;;
18661;SDS011;61528;49.456;11.098;2023-07-29T13:42:54;1.40;;;1.33;;
18661;SDS011;61528;49.456;11.098;2023-07-29T13:45:20;2.00;;;1.50;;
18661;SDS011;61528;49.456;11.098;2023-07-29T13:47:47;1.77;;;1.67;;
18661;SDS011;61528;49.456;11.098;2023-07-29T13:50:13;1.63;;;1.53;;
18661;SDS011;61528;49.456;11.098;2023-07-29T13:52:40;1.40;;;1.30;;
18661;SDS011;61528;49.456;11.098;2023-07-29T13:55:07;3.00;;;1.70;;
18661;SDS011;61528;49.456;11.098;2023-07-29T13:57:35;1.60;;;1.47;;
18661;SDS011;61528;49.456;11.098;2023-07-29T14:00:02;1.70;;;1.53;;
18661;SDS011;61528;49.456;11.098;2023-07-29T14:02:28;3.03;;;1.53;;
18661;SDS011;61528;49.456;11.098;2023-07-29T14:07:42;1.60;;;1.50;;
18661;SDS011;61528;49.456;11.098;2023-07-29T14:10:08;1.97;;;1.43;;
18661;SDS011;61528;49.456;11.098;2023-07-29T14:15:05;2.07;;;1.40;;
18661;SDS011;61528;49.456;11.098;2023-07-29T14:17:32;1.60;;;1.47;;
18661;SDS011;61528;49.456;11.098;2023-07-29T14:20:00;1.80;;;1.60;;
18661;SDS011;61528;49.456;11.098;2023-07-29T14:22:28;1.60;;;1.50;;
18661;SDS011;61528;49.456;11.098;2023-07-29T14:24:54;1.33;;;1.07;;
18661;SDS011;61528;49.456;11.098;2023-07-29T14:27:20;1.10;;;1.10;;
18661;SDS011;61528;49.456;11.098;2023-07-29T14:29:47;1.20;;;1.20;;
18661;SDS011;61528;49.456;11.098;2023-07-29T14:32:13;1.40;;;1.30;;
18661;SDS011;61528;49.456;11.098;2023-07-29T14:34:39;1.27;;;1.17;;
18661;SDS011;61528;49.456;11.098;2023-07-29T14:37:06;0.97;;;0.97;;
18661;SDS011;61528;49.456;11.098;2023-07-29T14:39:32;1.57;;;1.20;;
18661;SDS011;61528;49.456;11.098;2023-07-29T14:41:58;1.47;;;1.20;;
18661;SDS011;61528;49.456;11.098;2023-07-29T14:44:24;1.73;;;1.20;;
18661;SDS011;61528;49.456;11.098;2023-07-29T14:46:51;1.30;;;1.20;;
18661;SDS011;61528;49.456;11.098;2023-07-29T14:49:18;1.20;;;1.10;;